| time (UTC) | temp C | wind direction | speed KPH | gust KPH | rain 1hr cm | rain 24hr cm | rain mn cm | humidity % | barometer mb |
| 20260504151008 | 18 | 350 | 1.6 | 4.8 | 0.00 | 0.00 | 0.00 | 53 | 1015.8 |
| 20260504150508 | 18 | 225 | 1.6 | 9.7 | 0.00 | 0.00 | 0.00 | 51 | 1015.8 |
| 20260504141007 | 13 | 5 | 1.6 | 4.8 | 0.00 | 0.00 | 0.00 | 74 | 1015.9 |
| 20260504140506 | 12 | 205 | 0.0 | 9.7 | 0.00 | 0.00 | 0.00 | 77 | 1015.9 |
| 20260504130505 | 8 | 309 | 0.0 | 0.0 | 0.00 | 0.00 | 0.00 | 93 | 1015.7 |
| 20260504100459 | 7 | 309 | 0.0 | 0.0 | 0.00 | 0.00 | 0.00 | 88 | 1015.3 |
| 20260504081956 | 8 | 309 | 0.0 | 0.0 | 0.00 | 0.00 | 0.00 | 85 | 1015.3 |
| 20260504081456 | 8 | 309 | 0.0 | 0.0 | 0.00 | 0.00 | 0.00 | 85 | 1015.3 |
| 20260504080956 | 8 | 309 | 0.0 | 0.0 | 0.00 | 0.00 | 0.00 | 85 | 1015.3 |
| 20260504080456 | 8 | 309 | 0.0 | 0.0 | 0.00 | 0.00 | 0.00 | 85 | 1015.3 |
| 20260504050520 | 10 | 309 | 0.0 | 0.0 | 0.00 | 0.00 | 0.00 | 76 | 1016.1 |
| 20260504045020 | 11 | 309 | 0.0 | 0.0 | 0.00 | 0.00 | 0.00 | 74 | 1016.0 |
| 20260504044520 | 11 | 309 | 0.0 | 0.0 | 0.00 | 0.00 | 0.00 | 74 | 1016.0 |
| 20260504043519 | 11 | 309 | 0.0 | 0.0 | 0.00 | 0.00 | 0.00 | 73 | 1016.0 |
| 20260504043019 | 11 | 309 | 0.0 | 0.0 | 0.00 | 0.00 | 0.00 | 73 | 1016.0 |
| 20260504042519 | 11 | 309 | 0.0 | 0.0 | 0.00 | 0.00 | 0.00 | 72 | 1016.1 |
| 20260504042019 | 11 | 309 | 0.0 | 0.0 | 0.00 | 0.00 | 0.00 | 72 | 1016.1 |
| 20260504041519 | 11 | 309 | 0.0 | 0.0 | 0.00 | 0.00 | 0.00 | 71 | 1016.1 |
| 20260504041019 | 11 | 309 | 0.0 | 0.0 | 0.00 | 0.00 | 0.00 | 71 | 1016.1 |
| 20260504040519 | 11 | 309 | 0.0 | 0.0 | 0.00 | 0.00 | 0.00 | 70 | 1016.1 |
| 20260504040018 | 11 | 309 | 0.0 | 0.0 | 0.00 | 0.00 | 0.00 | 70 | 1016.1 |
| 20260504035018 | 12 | 309 | 0.0 | 0.0 | 0.00 | 0.00 | 0.00 | 70 | 1016.1 |
| 20260504034518 | 12 | 309 | 0.0 | 0.0 | 0.00 | 0.00 | 0.00 | 70 | 1016.1 |
| 20260504033518 | 12 | 309 | 0.0 | 0.0 | 0.00 | 0.00 | 0.00 | 69 | 1016.3 |
| 20260504033018 | 12 | 309 | 0.0 | 0.0 | 0.00 | 0.00 | 0.00 | 69 | 1016.3 |
| 20260504032517 | 12 | 309 | 0.0 | 0.0 | 0.00 | 0.00 | 0.00 | 68 | 1016.2 |
| 20260504032017 | 12 | 309 | 0.0 | 0.0 | 0.00 | 0.00 | 0.00 | 68 | 1016.2 |
| 20260504031517 | 12 | 309 | 0.0 | 1.6 | 0.00 | 0.00 | 0.00 | 67 | 1016.2 |
| 20260504030017 | 12 | 309 | 0.0 | 0.0 | 0.00 | 0.00 | 0.00 | 65 | 1016.2 |
| 20260504025516 | 12 | 309 | 0.0 | 0.0 | 0.00 | 0.00 | 0.00 | 66 | 1016.1 |
| 20260504024516 | 13 | 309 | 0.0 | 0.0 | 0.00 | 0.00 | 0.00 | 66 | 1016.1 |
| 20260504023516 | 13 | 309 | 0.0 | 0.0 | 0.00 | 0.00 | 0.00 | 65 | 1016.0 |
| 20260504023016 | 13 | 309 | 0.0 | 0.0 | 0.00 | 0.00 | 0.00 | 65 | 1016.0 |
| 20260504022516 | 13 | 309 | 0.0 | 0.0 | 0.00 | 0.00 | 0.00 | 64 | 1015.9 |
| 20260504021515 | 13 | 309 | 0.0 | 0.0 | 0.00 | 0.00 | 0.00 | 63 | 1015.9 |
| 20260504021015 | 13 | 309 | 0.0 | 0.0 | 0.00 | 0.00 | 0.00 | 62 | 1015.5 |
| 20260504020515 | 13 | 309 | 0.0 | 0.0 | 0.00 | 0.00 | 0.00 | 62 | 1015.5 |
| 20260504015515 | 14 | 309 | 0.0 | 0.0 | 0.00 | 0.00 | 0.00 | 61 | 1015.4 |
| 20260504015015 | 14 | 309 | 0.0 | 1.6 | 0.00 | 0.00 | 0.00 | 60 | 1015.4 |
| 20260504014514 | 14 | 309 | 0.0 | 1.6 | 0.00 | 0.00 | 0.00 | 59 | 1015.4 |
| 20260504014014 | 15 | 309 | 0.0 | 0.0 | 0.00 | 0.00 | 0.00 | 59 | 1015.4 |
| 20260504013014 | 15 | 309 | 0.0 | 0.0 | 0.00 | 0.00 | 0.00 | 58 | 1015.4 |
| 20260504012514 | 15 | 309 | 0.0 | 0.0 | 0.00 | 0.00 | 0.00 | 58 | 1015.2 |
| 20260504012013 | 15 | 309 | 0.0 | 0.0 | 0.00 | 0.00 | 0.00 | 57 | 1015.2 |
| 20260504011513 | 15 | 309 | 0.0 | 0.0 | 0.00 | 0.00 | 0.00 | 56 | 1015.2 |
| 20260504011013 | 16 | 309 | 0.0 | 0.0 | 0.00 | 0.00 | 0.00 | 54 | 1015.0 |
| 20260504010513 | 16 | 309 | 0.0 | 0.0 | 0.00 | 0.00 | 0.00 | 55 | 1015.0 |
| 20260504010013 | 16 | 309 | 0.0 | 0.0 | 0.00 | 0.00 | 0.00 | 54 | 1015.0 |
| 20260504005513 | 16 | 309 | 0.0 | 0.0 | 0.00 | 0.00 | 0.00 | 53 | 1014.8 |
| 20260504005013 | 17 | 309 | 0.0 | 1.6 | 0.00 | 0.00 | 0.00 | 52 | 1014.8 |
| 20260504004512 | 17 | 309 | 0.0 | 1.6 | 0.00 | 0.00 | 0.00 | 51 | 1014.8 |
| 20260504004013 | 17 | 309 | 0.0 | 0.0 | 0.00 | 0.00 | 0.00 | 50 | 1014.8 |
| 20260504003512 | 17 | 309 | 0.0 | 1.6 | 0.00 | 0.00 | 0.00 | 49 | 1014.8 |
| 20260504003012 | 18 | 309 | 0.0 | 1.6 | 0.00 | 0.00 | 0.00 | 48 | 1014.8 |
| 20260504002512 | 18 | 309 | 0.0 | 0.0 | 0.00 | 0.00 | 0.00 | 46 | 1014.8 |
| 20260504001512 | 18 | 309 | 0.0 | 1.6 | 0.00 | 0.00 | 0.00 | 43 | 1014.8 |
| 20260504001011 | 18 | 309 | 0.0 | 1.6 | 0.00 | 0.00 | 0.00 | 43 | 1014.7 |
| 20260504000011 | 19 | 309 | 0.0 | 3.2 | 0.00 | 0.00 | 0.00 | 42 | 1014.7 |
| 20260503235511 | 19 | 309 | 0.0 | 3.2 | 0.00 | 0.00 | 0.00 | 42 | 1014.7 |
| 20260503235011 | 19 | 309 | 0.0 | 4.8 | 0.00 | 0.00 | 0.00 | 42 | 1014.7 |
| 20260503234511 | 19 | 309 | 0.0 | 4.8 | 0.00 | 0.00 | 0.00 | 42 | 1014.7 |
| 20260503233510 | 19 | 322 | 0.0 | 6.4 | 0.00 | 0.00 | 0.00 | 42 | 1014.6 |
| 20260503233011 | 19 | 322 | 0.0 | 6.4 | 0.00 | 0.00 | 0.00 | 42 | 1014.6 |
| 20260503232510 | 19 | 296 | 3.2 | 6.4 | 0.00 | 0.00 | 0.00 | 40 | 1014.7 |
| 20260503231510 | 19 | 333 | 1.6 | 9.7 | 0.00 | 0.00 | 0.00 | 41 | 1014.7 |
| 20260503231010 | 19 | 9 | 3.2 | 9.7 | 0.00 | 0.00 | 0.00 | 39 | 1014.9 |
| 20260503230509 | 20 | 304 | 0.0 | 8.0 | 0.00 | 0.00 | 0.00 | 38 | 1014.9 |
| 20260503230010 | 20 | 351 | 3.2 | 8.0 | 0.00 | 0.00 | 0.00 | 38 | 1014.9 |
| 20260503225509 | 20 | 315 | 1.6 | 8.0 | 0.00 | 0.00 | 0.00 | 37 | 1014.8 |
| 20260503225009 | 20 | 306 | 1.6 | 8.0 | 0.00 | 0.00 | 0.00 | 38 | 1014.9 |
| 20260503223008 | 20 | 360 | 1.6 | 8.0 | 0.00 | 0.00 | 0.00 | 37 | 1014.8 |
| 20260503222508 | 20 | 257 | 3.2 | 8.0 | 0.00 | 0.00 | 0.00 | 37 | 1014.8 |
| 20260503222008 | 20 | 355 | 1.6 | 8.0 | 0.00 | 0.00 | 0.00 | 38 | 1014.8 |
| 20260503221508 | 20 | 360 | 4.8 | 6.4 | 0.00 | 0.00 | 0.00 | 37 | 1014.8 |
| 20260503221008 | 20 | 234 | 3.2 | 8.0 | 0.00 | 0.00 | 0.00 | 37 | 1014.9 |
| 20260503220008 | 20 | 302 | 1.6 | 11.3 | 0.00 | 0.00 | 0.00 | 35 | 1014.8 |
| 20260503215507 | 20 | 15 | 1.6 | 11.3 | 0.00 | 0.00 | 0.00 | 35 | 1014.8 |
| 20260503215008 | 20 | 11 | 0.0 | 6.4 | 0.00 | 0.00 | 0.00 | 38 | 1014.9 |
| 20260503214507 | 20 | 24 | 1.6 | 11.3 | 0.00 | 0.00 | 0.00 | 35 | 1014.8 |
| 20260503214007 | 20 | 286 | 4.8 | 11.3 | 0.00 | 0.00 | 0.00 | 37 | 1015.0 |
| 20260503213507 | 20 | 292 | 1.6 | 9.7 | 0.00 | 0.00 | 0.00 | 37 | 1015.0 |
| 20260503213007 | 20 | 290 | 8.0 | 9.7 | 0.00 | 0.00 | 0.00 | 37 | 1014.9 |
| 20260503212507 | 20 | 355 | 3.2 | 8.0 | 0.00 | 0.00 | 0.00 | 39 | 1015.0 |
| 20260503212007 | 20 | 16 | 4.8 | 14.5 | 0.00 | 0.00 | 0.00 | 37 | 1015.0 |
| 20260503211006 | 20 | 27 | 3.2 | 8.0 | 0.00 | 0.00 | 0.00 | 39 | 1015.1 |
| 20260503205506 | 20 | 324 | 3.2 | 11.3 | 0.00 | 0.00 | 0.00 | 39 | 1015.4 |
| 20260503204506 | 20 | 13 | 6.4 | 9.7 | 0.00 | 0.00 | 0.00 | 38 | 1015.3 |
| 20260503204005 | 20 | 340 | 1.6 | 8.0 | 0.00 | 0.00 | 0.00 | 41 | 1015.5 |
| 20260503203505 | 20 | 153 | 1.6 | 8.0 | 0.00 | 0.00 | 0.00 | 42 | 1015.5 |
| 20260503203005 | 20 | 240 | 3.2 | 9.7 | 0.00 | 0.00 | 0.00 | 39 | 1015.5 |
| 20260503202005 | 20 | 298 | 3.2 | 11.3 | 0.00 | 0.00 | 0.00 | 39 | 1015.8 |
| 20260503201505 | 20 | 317 | 0.0 | 9.7 | 0.00 | 0.00 | 0.00 | 41 | 1015.9 |
| 20260503201004 | 20 | 316 | 6.4 | 9.7 | 0.00 | 0.00 | 0.00 | 39 | 1016.0 |
| 20260503200004 | 20 | 304 | 1.6 | 11.3 | 0.00 | 0.00 | 0.00 | 39 | 1016.0 |
| 20260503195504 | 19 | 304 | 1.6 | 8.0 | 0.00 | 0.00 | 0.00 | 39 | 1016.1 |
| 20260503195005 | 19 | 10 | 1.6 | 14.5 | 0.00 | 0.00 | 0.00 | 40 | 1016.1 |
| 20260503194504 | 18 | 298 | 8.0 | 14.5 | 0.00 | 0.00 | 0.00 | 39 | 1016.1 |
| 20260503194004 | 18 | 208 | 4.8 | 8.0 | 0.00 | 0.00 | 0.00 | 42 | 1016.5 |
| 20260503193503 | 18 | 229 | 3.2 | 8.0 | 0.00 | 0.00 | 0.00 | 44 | 1016.6 |
| 20260503193004 | 19 | 38 | 3.2 | 12.9 | 0.00 | 0.00 | 0.00 | 42 | 1016.5 |
| 20260503192003 | 19 | 258 | 6.4 | 9.7 | 0.00 | 0.00 | 0.00 | 41 | 1016.6 |
| 20260503191503 | 18 | 211 | 3.2 | 4.8 | 0.00 | 0.00 | 0.00 | 43 | 1016.6 |
| 20260503190002 | 18 | 40 | 4.8 | 11.3 | 0.00 | 0.00 | 0.00 | 38 | 1017.0 |
| 20260503185502 | 18 | 252 | 11.3 | 11.3 | 0.00 | 0.00 | 0.00 | 38 | 1017.1 |
| 20260503185002 | 18 | 226 | 3.2 | 6.4 | 0.00 | 0.00 | 0.00 | 44 | 1017.0 |
| 20260503184502 | 18 | 211 | 3.2 | 4.8 | 0.00 | 0.00 | 0.00 | 42 | 1017.0 |
| 20260503183502 | 18 | 360 | 4.8 | 16.1 | 0.00 | 0.00 | 0.00 | 41 | 1017.3 |
| 20260503183001 | 18 | 263 | 6.4 | 8.0 | 0.00 | 0.00 | 0.00 | 41 | 1017.3 |
| 20260503182502 | 17 | 341 | 3.2 | 11.3 | 0.00 | 0.00 | 0.00 | 44 | 1017.5 |
| 20260503182001 | 17 | 297 | 3.2 | 11.3 | 0.00 | 0.00 | 0.00 | 42 | 1017.5 |
| 20260503181001 | 17 | 284 | 4.8 | 11.3 | 0.00 | 0.00 | 0.00 | 44 | 1017.5 |
| 20260503180501 | 17 | 271 | 1.6 | 6.4 | 0.00 | 0.00 | 0.00 | 44 | 1017.5 |
| 20260503180001 | 17 | 263 | 3.2 | 9.7 | 0.00 | 0.00 | 0.00 | 45 | 1017.5 |
| 20260503175500 | 17 | 254 | 0.0 | 9.7 | 0.00 | 0.00 | 0.00 | 45 | 1017.5 |
| 20260503175000 | 17 | 243 | 3.2 | 11.3 | 0.00 | 0.00 | 0.00 | 44 | 1017.5 |
| 20260503174000 | 17 | 257 | 3.2 | 11.3 | 0.00 | 0.00 | 0.00 | 45 | 1017.6 |
| 20260503173500 | 17 | 263 | 4.8 | 8.0 | 0.00 | 0.00 | 0.00 | 46 | 1017.6 |
| 20260503173000 | 17 | 201 | 1.6 | 9.7 | 0.00 | 0.00 | 0.00 | 47 | 1017.6 |
| 20260503172459 | 17 | 349 | 8.0 | 9.7 | 0.00 | 0.00 | 0.00 | 47 | 1017.8 |
| 20260503172000 | 17 | 296 | 4.8 | 9.7 | 0.00 | 0.00 | 0.00 | 47 | 1017.8 |
| 20260503171459 | 16 | 345 | 0.0 | 9.7 | 0.00 | 0.00 | 0.00 | 48 | 1017.8 |
| 20260503170959 | 16 | 277 | 4.8 | 9.7 | 0.00 | 0.00 | 0.00 | 48 | 1018.0 |